Vremea acum in Săliștea De Sus - Romania

Vrei sa afli care e starea vremii acum in Maramures - Romania? Dorim sa iti furnizam starea vremii pentru Maramures - Romania. Starea vremii Maramures - Romania pentru astazi.

Vremea acum in Săliștea De Sus

Temperatura: 6.4 °C

Este: Senin
Se simte ca: 5.6 °C
Innorat: 4 %
Precipitatii: 0 %
Presiune atmosferica: 1018 hPa
Umiditate: 75%
Vizibilitate: 10 km
Vantul bate din ENE cu 5.4 km/h

Evolutia vremii in Săliștea De Sus pe ore

Ora: 04:00
Senin
Temperatura: 5.9°C
Sansa de precipitatii: 0%
Ora Descriere Temp Se simte Precipitatii Umiditate Vant
00:00Senin6.6°5.7°0%75%ENE 5.8 KM/H
01:00Senin6.4°5.6°0%75%ENE 5.4 KM/H
02:00Senin6.3°5.5°0%74%ENE 5 KM/H
03:00Senin6.1°5.3°0%74%ENE 5 KM/H
04:00Senin5.9°5.1°0%75%ENE 5 KM/H
05:00Senin5.7°4.9°0%76%ENE 5 KM/H
06:00Senin5.6°4.6°0%76%ENE 5.4 KM/H
07:00Senin6.8°6.2°0%73%ENE 4.7 KM/H
08:00Senin12.9°12.9°0%62%SE 1.4 KM/H
09:00Senin15.6°15.6°0%53%SW 3.2 KM/H
10:00Senin17.2°17.2°0%47%SW 5 KM/H
11:00Senin18.6°18.7°0%42%SW 6.1 KM/H
12:00Senin19.7°19.7°0%39%SW 7.2 KM/H
13:00Senin20.3°20.3°0%38%WSW 8.3 KM/H
14:00Senin20.8°20.8°0%36%WSW 8.3 KM/H
15:00Senin21°21°0%36%WSW 8.6 KM/H
16:00Senin20.9°20.9°0%36%WSW 9 KM/H
17:00Senin20.5°20.5°0%37%W 10.4 KM/H
18:00Senin19.7°19.8°0%41%W 9.4 KM/H
19:00Senin18.3°18.3°0%53%W 5.8 KM/H
20:00Senin12°12°0%65%W 2.2 KM/H
21:00Senin9.5°9.5°0%70%NE 2.2 KM/H
22:00Senin8.7°8.7°0%71%ENE 4 KM/H
23:00Senin8.2°0%71%ENE 4.3 KM/H




tutorials